Weather at Bismarck Municipal Airport

Public forecast

Using degrees Fahrenheit for public forecast. Weather courtesy of forecast.io.

Current aviation weather report (METAR) for Bismarck Municipal Airport

2024/05/22 04:52 (retrieved 28 minutes ago)

KBIS 220452Z AUTO 31011KT 10SM CLR 13/05 A2980 RMK AO2 SLP092 T01280050

Closest aviation forecast (TAF) to Bismarck Municipal Airport

Forecast is more than 6 hours old.

Closest forecast is Estevan Airport, 171.4 nm (317.4 km) NNW.

2024/05/21 18:00 (retrieved 11 hours ago)

TAF CYEN 211740Z 2118/2124 26010KT P6SM SCT040 TEMPO 2118/2122 P6SM -SHRA BKN040 FM212200 31012KT P6SM BKN070 RMK FCST BASED ON AUTO OBS NXT FCST BY 221200Z